sensor_id;sensor_type;location;lat;lon;timestamp;temperature;humidity
11744;DHT22;5929;51.906;7.674;2023-03-23T00:02:22;10.60;99.90
11744;DHT22;5929;51.906;7.674;2023-03-23T00:04:49;10.60;99.90
11744;DHT22;5929;51.906;7.674;2023-03-23T00:07:17;10.60;99.90
11744;DHT22;5929;51.906;7.674;2023-03-23T00:09:46;10.60;99.90
11744;DHT22;5929;51.906;7.674;2023-03-23T00:12:19;10.60;99.90
11744;DHT22;5929;51.906;7.674;2023-03-23T00:14:45;10.60;99.90
11744;DHT22;5929;51.906;7.674;2023-03-23T00:17:13;10.60;99.90
11744;DHT22;5929;51.906;7.674;2023-03-23T00:19:40;10.60;99.90
11744;DHT22;5929;51.906;7.674;2023-03-23T00:22:12;10.50;99.90
11744;DHT22;5929;51.906;7.674;2023-03-23T00:24:41;10.60;99.90
11744;DHT22;5929;51.906;7.674;2023-03-23T00:27:08;10.60;99.90
11744;DHT22;5929;51.906;7.674;2023-03-23T00:29:38;10.60;99.90
11744;DHT22;5929;51.906;7.674;2023-03-23T00:32:05;10.60;99.90
11744;DHT22;5929;51.906;7.674;2023-03-23T00:34:32;10.60;99.90
11744;DHT22;5929;51.906;7.674;2023-03-23T00:37:00;10.60;99.90
11744;DHT22;5929;51.906;7.674;2023-03-23T00:39:27;10.60;99.90
11744;DHT22;5929;51.906;7.674;2023-03-23T00:41:56;10.60;99.90
11744;DHT22;5929;51.906;7.674;2023-03-23T00:44:26;10.60;99.90
11744;DHT22;5929;51.906;7.674;2023-03-23T00:46:54;10.60;99.90
11744;DHT22;5929;51.906;7.674;2023-03-23T00:49:23;10.60;99.90
11744;DHT22;5929;51.906;7.674;2023-03-23T00:51:51;10.60;99.90
11744;DHT22;5929;51.906;7.674;2023-03-23T00:54:19;10.60;99.90
11744;DHT22;5929;51.906;7.674;2023-03-23T00:56:46;10.50;99.90
11744;DHT22;5929;51.906;7.674;2023-03-23T00:59:15;10.60;99.90
11744;DHT22;5929;51.906;7.674;2023-03-23T01:01:42;10.50;99.90
11744;DHT22;5929;51.906;7.674;2023-03-23T01:04:09;10.60;99.90
11744;DHT22;5929;51.906;7.674;2023-03-23T01:06:40;10.60;99.90
11744;DHT22;5929;51.906;7.674;2023-03-23T01:09:09;10.60;99.90
11744;DHT22;5929;51.906;7.674;2023-03-23T01:11:40;10.60;99.90
11744;DHT22;5929;51.906;7.674;2023-03-23T01:14:08;10.60;99.90
11744;DHT22;5929;51.906;7.674;2023-03-23T01:16:36;10.60;99.90
11744;DHT22;5929;51.906;7.674;2023-03-23T01:19:03;10.60;99.90
11744;DHT22;5929;51.906;7.674;2023-03-23T01:21:30;10.60;99.90
11744;DHT22;5929;51.906;7.674;2023-03-23T01:23:57;10.60;99.90
11744;DHT22;5929;51.906;7.674;2023-03-23T01:26:25;10.60;99.90
11744;DHT22;5929;51.906;7.674;2023-03-23T01:28:52;10.70;99.90
11744;DHT22;5929;51.906;7.674;2023-03-23T01:31:21;10.70;99.90
11744;DHT22;5929;51.906;7.674;2023-03-23T01:33:49;10.70;99.90
11744;DHT22;5929;51.906;7.674;2023-03-23T01:36:18;10.70;99.90
11744;DHT22;5929;51.906;7.674;2023-03-23T01:38:47;10.70;99.90
11744;DHT22;5929;51.906;7.674;2023-03-23T01:41:14;10.70;99.90
11744;DHT22;5929;51.906;7.674;2023-03-23T01:43:54;10.70;99.90
11744;DHT22;5929;51.906;7.674;2023-03-23T01:46:21;10.60;99.90
11744;DHT22;5929;51.906;7.674;2023-03-23T01:48:50;10.60;99.90
11744;DHT22;5929;51.906;7.674;2023-03-23T01:51:19;10.60;99.90
11744;DHT22;5929;51.906;7.674;2023-03-23T01:53:50;10.70;99.90
11744;DHT22;5929;51.906;7.674;2023-03-23T01:56:21;10.70;99.90
11744;DHT22;5929;51.906;7.674;2023-03-23T01:58:52;10.70;99.90
11744;DHT22;5929;51.906;7.674;2023-03-23T02:01:21;10.70;99.90
11744;DHT22;5929;51.906;7.674;2023-03-23T02:03:52;10.70;99.90
11744;DHT22;5929;51.906;7.674;2023-03-23T02:06:21;10.80;99.90
11744;DHT22;5929;51.906;7.674;2023-03-23T02:08:49;10.90;99.90
11744;DHT22;5929;51.906;7.674;2023-03-23T02:11:18;10.90;99.90
11744;DHT22;5929;51.906;7.674;2023-03-23T02:13:47;10.90;99.90
11744;DHT22;5929;51.906;7.674;2023-03-23T02:16:21;11.00;99.90
11744;DHT22;5929;51.906;7.674;2023-03-23T02:18:57;11.10;99.90
11744;DHT22;5929;51.906;7.674;2023-03-23T02:24:53;11.10;99.90
11744;DHT22;5929;51.906;7.674;2023-03-23T02:27:43;11.20;99.90
11744;DHT22;5929;51.906;7.674;2023-03-23T02:33:44;11.30;99.90
11744;DHT22;5929;51.906;7.674;2023-03-23T02:36:19;11.30;99.90
11744;DHT22;5929;51.906;7.674;2023-03-23T02:38:55;11.30;99.90
11744;DHT22;5929;51.906;7.674;2023-03-23T02:41:28;11.40;99.90
11744;DHT22;5929;51.906;7.674;2023-03-23T02:43:57;11.40;99.90
11744;DHT22;5929;51.906;7.674;2023-03-23T02:46:25;11.50;99.90
11744;DHT22;5929;51.906;7.674;2023-03-23T02:48:55;11.50;99.90
11744;DHT22;5929;51.906;7.674;2023-03-23T02:51:24;11.50;99.90
11744;DHT22;5929;51.906;7.674;2023-03-23T02:53:55;11.50;99.90
11744;DHT22;5929;51.906;7.674;2023-03-23T02:56:24;11.60;99.90
11744;DHT22;5929;51.906;7.674;2023-03-23T02:58:51;11.60;99.90
11744;DHT22;5929;51.906;7.674;2023-03-23T03:01:48;11.60;99.90
11744;DHT22;5929;51.906;7.674;2023-03-23T03:04:19;11.60;99.90
11744;DHT22;5929;51.906;7.674;2023-03-23T03:06:59;11.60;99.90
11744;DHT22;5929;51.906;7.674;2023-03-23T03:09:37;11.60;99.90
11744;DHT22;5929;51.906;7.674;2023-03-23T03:12:08;11.60;99.90
11744;DHT22;5929;51.906;7.674;2023-03-23T03:14:39;11.50;99.90
11744;DHT22;5929;51.906;7.674;2023-03-23T03:17:13;11.50;99.90
11744;DHT22;5929;51.906;7.674;2023-03-23T03:19:45;11.50;99.90
11744;DHT22;5929;51.906;7.674;2023-03-23T03:22:14;11.50;99.90
11744;DHT22;5929;51.906;7.674;2023-03-23T03:24:41;11.60;99.90
11744;DHT22;5929;51.906;7.674;2023-03-23T03:27:12;11.60;99.90
11744;DHT22;5929;51.906;7.674;2023-03-23T03:29:44;11.70;99.90
11744;DHT22;5929;51.906;7.674;2023-03-23T03:32:15;11.70;99.90
11744;DHT22;5929;51.906;7.674;2023-03-23T03:34:45;11.70;99.90
11744;DHT22;5929;51.906;7.674;2023-03-23T03:37:13;11.70;99.90
11744;DHT22;5929;51.906;7.674;2023-03-23T03:39:41;11.70;99.90
11744;DHT22;5929;51.906;7.674;2023-03-23T03:42:08;11.80;99.90
11744;DHT22;5929;51.906;7.674;2023-03-23T03:44:35;11.80;99.90
11744;DHT22;5929;51.906;7.674;2023-03-23T03:47:02;11.80;99.90
11744;DHT22;5929;51.906;7.674;2023-03-23T03:49:29;11.80;99.90
11744;DHT22;5929;51.906;7.674;2023-03-23T03:51:57;11.80;99.90
11744;DHT22;5929;51.906;7.674;2023-03-23T03:54:24;11.80;99.90
11744;DHT22;5929;51.906;7.674;2023-03-23T03:56:52;11.80;99.90
11744;DHT22;5929;51.906;7.674;2023-03-23T03:59:23;11.70;99.90
11744;DHT22;5929;51.906;7.674;2023-03-23T04:01:51;11.70;99.90
11744;DHT22;5929;51.906;7.674;2023-03-23T04:04:19;11.80;99.90
11744;DHT22;5929;51.906;7.674;2023-03-23T04:06:47;11.70;99.90
11744;DHT22;5929;51.906;7.674;2023-03-23T04:09:15;11.70;99.90
11744;DHT22;5929;51.906;7.674;2023-03-23T04:11:42;11.80;99.90
11744;DHT22;5929;51.906;7.674;2023-03-23T04:14:09;11.70;99.90
11744;DHT22;5929;51.906;7.674;2023-03-23T04:16:36;11.80;99.90
11744;DHT22;5929;51.906;7.674;2023-03-23T04:19:03;11.80;99.90
11744;DHT22;5929;51.906;7.674;2023-03-23T04:21:31;11.80;99.90
11744;DHT22;5929;51.906;7.674;2023-03-23T04:23:57;11.80;99.90
11744;DHT22;5929;51.906;7.674;2023-03-23T04:26:27;11.80;99.90
11744;DHT22;5929;51.906;7.674;2023-03-23T04:28:57;11.80;99.90
11744;DHT22;5929;51.906;7.674;2023-03-23T04:31:24;11.80;99.90
11744;DHT22;5929;51.906;7.674;2023-03-23T04:33:51;11.80;99.90
11744;DHT22;5929;51.906;7.674;2023-03-23T04:36:19;11.90;99.90
11744;DHT22;5929;51.906;7.674;2023-03-23T04:38:48;11.90;99.90
11744;DHT22;5929;51.906;7.674;2023-03-23T04:41:15;11.90;99.90
11744;DHT22;5929;51.906;7.674;2023-03-23T04:43:43;11.90;99.90
11744;DHT22;5929;51.906;7.674;2023-03-23T04:46:10;11.90;99.90
11744;DHT22;5929;51.906;7.674;2023-03-23T04:48:41;11.90;99.90
11744;DHT22;5929;51.906;7.674;2023-03-23T04:51:07;12.00;99.90
11744;DHT22;5929;51.906;7.674;2023-03-23T04:53:34;11.90;99.90
11744;DHT22;5929;51.906;7.674;2023-03-23T04:56:01;11.90;99.90
11744;DHT22;5929;51.906;7.674;2023-03-23T04:58:28;11.90;99.90
11744;DHT22;5929;51.906;7.674;2023-03-23T05:01:00;11.90;99.90
11744;DHT22;5929;51.906;7.674;2023-03-23T05:03:29;11.90;99.90
11744;DHT22;5929;51.906;7.674;2023-03-23T05:06:01;12.00;99.90
11744;DHT22;5929;51.906;7.674;2023-03-23T05:08:28;12.00;99.90
11744;DHT22;5929;51.906;7.674;2023-03-23T05:10:58;12.00;99.90
11744;DHT22;5929;51.906;7.674;2023-03-23T05:13:26;12.00;99.90
11744;DHT22;5929;51.906;7.674;2023-03-23T05:15:53;11.90;99.90
11744;DHT22;5929;51.906;7.674;2023-03-23T05:18:21;11.90;99.90
11744;DHT22;5929;51.906;7.674;2023-03-23T05:20:48;11.90;99.90
11744;DHT22;5929;51.906;7.674;2023-03-23T05:23:18;11.90;99.90
11744;DHT22;5929;51.906;7.674;2023-03-23T05:25:52;11.90;99.90
11744;DHT22;5929;51.906;7.674;2023-03-23T05:28:19;11.80;99.90
11744;DHT22;5929;51.906;7.674;2023-03-23T05:30:47;11.90;99.90
11744;DHT22;5929;51.906;7.674;2023-03-23T05:33:15;11.90;99.90
11744;DHT22;5929;51.906;7.674;2023-03-23T05:35:43;11.90;99.90
11744;DHT22;5929;51.906;7.674;2023-03-23T05:38:12;12.00;99.90
11744;DHT22;5929;51.906;7.674;2023-03-23T05:40:40;12.00;99.90
11744;DHT22;5929;51.906;7.674;2023-03-23T05:43:06;12.00;99.90
11744;DHT22;5929;51.906;7.674;2023-03-23T05:45:33;11.90;99.90
11744;DHT22;5929;51.906;7.674;2023-03-23T05:48:00;12.00;99.90
11744;DHT22;5929;51.906;7.674;2023-03-23T05:50:27;12.00;99.90
11744;DHT22;5929;51.906;7.674;2023-03-23T05:52:55;12.00;99.90
11744;DHT22;5929;51.906;7.674;2023-03-23T05:55:22;12.00;99.90
11744;DHT22;5929;51.906;7.674;2023-03-23T05:57:49;12.10;99.90
11744;DHT22;5929;51.906;7.674;2023-03-23T06:00:16;12.10;99.90
11744;DHT22;5929;51.906;7.674;2023-03-23T06:02:46;12.10;99.90
11744;DHT22;5929;51.906;7.674;2023-03-23T06:05:16;12.10;99.90
11744;DHT22;5929;51.906;7.674;2023-03-23T06:07:45;12.20;99.90
11744;DHT22;5929;51.906;7.674;2023-03-23T06:10:14;12.20;99.90
11744;DHT22;5929;51.906;7.674;2023-03-23T06:12:42;12.30;99.90
11744;DHT22;5929;51.906;7.674;2023-03-23T06:15:10;12.20;99.90
11744;DHT22;5929;51.906;7.674;2023-03-23T06:17:38;12.30;99.90
11744;DHT22;5929;51.906;7.674;2023-03-23T06:20:06;12.30;99.90
11744;DHT22;5929;51.906;7.674;2023-03-23T06:22:36;12.20;99.90
11744;DHT22;5929;51.906;7.674;2023-03-23T06:25:05;12.30;99.90
11744;DHT22;5929;51.906;7.674;2023-03-23T06:27:34;12.30;99.90
11744;DHT22;5929;51.906;7.674;2023-03-23T06:30:01;12.30;99.90
11744;DHT22;5929;51.906;7.674;2023-03-23T06:32:30;12.30;99.90
11744;DHT22;5929;51.906;7.674;2023-03-23T06:34:57;12.30;99.90
11744;DHT22;5929;51.906;7.674;2023-03-23T06:37:24;12.30;99.90
11744;DHT22;5929;51.906;7.674;2023-03-23T06:39:51;12.40;99.90
11744;DHT22;5929;51.906;7.674;2023-03-23T06:42:18;12.40;99.90
11744;DHT22;5929;51.906;7.674;2023-03-23T06:44:46;12.40;99.90
11744;DHT22;5929;51.906;7.674;2023-03-23T06:47:13;12.40;99.90
11744;DHT22;5929;51.906;7.674;2023-03-23T06:49:40;12.40;99.90
11744;DHT22;5929;51.906;7.674;2023-03-23T06:52:07;12.50;99.90
11744;DHT22;5929;51.906;7.674;2023-03-23T06:54:34;12.50;99.90
11744;DHT22;5929;51.906;7.674;2023-03-23T06:57:01;12.60;99.90
11744;DHT22;5929;51.906;7.674;2023-03-23T06:59:28;12.60;99.90
11744;DHT22;5929;51.906;7.674;2023-03-23T07:01:56;12.60;99.90
11744;DHT22;5929;51.906;7.674;2023-03-23T07:04:23;12.60;99.90
11744;DHT22;5929;51.906;7.674;2023-03-23T07:06:50;12.60;99.90
11744;DHT22;5929;51.906;7.674;2023-03-23T07:09:17;12.70;99.90
11744;DHT22;5929;51.906;7.674;2023-03-23T07:11:44;12.70;99.90
11744;DHT22;5929;51.906;7.674;2023-03-23T07:14:15;12.90;99.90
11744;DHT22;5929;51.906;7.674;2023-03-23T07:16:42;12.90;99.90
11744;DHT22;5929;51.906;7.674;2023-03-23T07:19:10;12.90;99.90
11744;DHT22;5929;51.906;7.674;2023-03-23T07:21:37;12.90;99.90
11744;DHT22;5929;51.906;7.674;2023-03-23T07:24:04;12.90;99.90
11744;DHT22;5929;51.906;7.674;2023-03-23T07:26:31;12.80;99.90
11744;DHT22;5929;51.906;7.674;2023-03-23T07:28:58;12.90;99.90
11744;DHT22;5929;51.906;7.674;2023-03-23T07:31:26;12.80;99.90
11744;DHT22;5929;51.906;7.674;2023-03-23T07:33:52;12.80;99.90
11744;DHT22;5929;51.906;7.674;2023-03-23T07:36:23;12.80;99.90
11744;DHT22;5929;51.906;7.674;2023-03-23T07:38:50;12.70;99.90
11744;DHT22;5929;51.906;7.674;2023-03-23T07:41:17;12.60;99.90
11744;DHT22;5929;51.906;7.674;2023-03-23T07:43:43;12.40;99.90
11744;DHT22;5929;51.906;7.674;2023-03-23T07:46:11;12.20;99.90
11744;DHT22;5929;51.906;7.674;2023-03-23T07:48:38;12.00;99.90
11744;DHT22;5929;51.906;7.674;2023-03-23T07:51:06;11.90;99.90
11744;DHT22;5929;51.906;7.674;2023-03-23T07:53:34;11.90;99.90
11744;DHT22;5929;51.906;7.674;2023-03-23T07:56:01;11.90;99.90
11744;DHT22;5929;51.906;7.674;2023-03-23T07:58:28;11.90;99.90
11744;DHT22;5929;51.906;7.674;2023-03-23T08:00:58;12.00;99.90
11744;DHT22;5929;51.906;7.674;2023-03-23T08:03:24;12.00;99.90
11744;DHT22;5929;51.906;7.674;2023-03-23T08:05:51;12.10;99.90
11744;DHT22;5929;51.906;7.674;2023-03-23T08:08:21;12.20;99.90
11744;DHT22;5929;51.906;7.674;2023-03-23T08:10:50;12.40;99.90
11744;DHT22;5929;51.906;7.674;2023-03-23T08:13:17;12.40;99.90
11744;DHT22;5929;51.906;7.674;2023-03-23T08:15:44;12.50;99.90
11744;DHT22;5929;51.906;7.674;2023-03-23T08:18:14;12.60;99.90
11744;DHT22;5929;51.906;7.674;2023-03-23T08:20:40;12.80;99.90
11744;DHT22;5929;51.906;7.674;2023-03-23T08:23:07;12.80;99.90
11744;DHT22;5929;51.906;7.674;2023-03-23T08:25:35;12.90;99.90
11744;DHT22;5929;51.906;7.674;2023-03-23T08:28:04;13.00;99.90
11744;DHT22;5929;51.906;7.674;2023-03-23T08:30:31;13.00;99.90
11744;DHT22;5929;51.906;7.674;2023-03-23T08:32:59;13.10;99.90
11744;DHT22;5929;51.906;7.674;2023-03-23T08:35:27;13.20;99.90
11744;DHT22;5929;51.906;7.674;2023-03-23T08:37:54;13.20;99.90
11744;DHT22;5929;51.906;7.674;2023-03-23T08:40:22;13.20;99.90
11744;DHT22;5929;51.906;7.674;2023-03-23T08:42:51;13.30;99.90
11744;DHT22;5929;51.906;7.674;2023-03-23T08:45:22;13.30;99.90
11744;DHT22;5929;51.906;7.674;2023-03-23T08:47:50;13.30;99.90
11744;DHT22;5929;51.906;7.674;2023-03-23T08:50:21;13.30;99.90
11744;DHT22;5929;51.906;7.674;2023-03-23T08:52:49;13.40;99.90
11744;DHT22;5929;51.906;7.674;2023-03-23T08:55:16;13.40;99.90
11744;DHT22;5929;51.906;7.674;2023-03-23T08:57:44;13.40;99.90
11744;DHT22;5929;51.906;7.674;2023-03-23T09:00:14;13.50;99.90
11744;DHT22;5929;51.906;7.674;2023-03-23T09:02:46;13.50;99.90
11744;DHT22;5929;51.906;7.674;2023-03-23T09:05:14;13.60;99.90
11744;DHT22;5929;51.906;7.674;2023-03-23T09:07:45;13.60;99.90
11744;DHT22;5929;51.906;7.674;2023-03-23T09:10:14;13.40;99.90
11744;DHT22;5929;51.906;7.674;2023-03-23T09:12:42;13.30;99.90
11744;DHT22;5929;51.906;7.674;2023-03-23T09:15:11;13.10;99.90
11744;DHT22;5929;51.906;7.674;2023-03-23T09:17:40;12.90;99.90
11744;DHT22;5929;51.906;7.674;2023-03-23T09:20:11;12.60;99.90
11744;DHT22;5929;51.906;7.674;2023-03-23T09:22:39;12.20;99.90
11744;DHT22;5929;51.906;7.674;2023-03-23T09:25:08;12.00;99.90
11744;DHT22;5929;51.906;7.674;2023-03-23T09:27:36;11.80;99.90
11744;DHT22;5929;51.906;7.674;2023-03-23T09:30:05;11.80;99.90
11744;DHT22;5929;51.906;7.674;2023-03-23T09:32:33;11.70;99.90
11744;DHT22;5929;51.906;7.674;2023-03-23T09:35:00;11.70;99.90
11744;DHT22;5929;51.906;7.674;2023-03-23T09:37:29;11.70;99.90
11744;DHT22;5929;51.906;7.674;2023-03-23T09:39:56;11.70;99.90
11744;DHT22;5929;51.906;7.674;2023-03-23T09:42:33;11.70;99.90
11744;DHT22;5929;51.906;7.674;2023-03-23T09:45:11;11.70;99.90
11744;DHT22;5929;51.906;7.674;2023-03-23T09:48:00;11.90;99.90
11744;DHT22;5929;51.906;7.674;2023-03-23T09:50:30;12.10;99.90
11744;DHT22;5929;51.906;7.674;2023-03-23T09:53:03;12.40;99.90
11744;DHT22;5929;51.906;7.674;2023-03-23T09:55:35;12.50;99.90
11744;DHT22;5929;51.906;7.674;2023-03-23T09:58:10;12.30;99.90
11744;DHT22;5929;51.906;7.674;2023-03-23T10:00:40;11.40;99.90
11744;DHT22;5929;51.906;7.674;2023-03-23T10:03:13;10.80;99.90
11744;DHT22;5929;51.906;7.674;2023-03-23T10:05:42;10.20;99.90
11744;DHT22;5929;51.906;7.674;2023-03-23T10:08:13;9.70;99.90
11744;DHT22;5929;51.906;7.674;2023-03-23T10:10:48;9.50;99.90
11744;DHT22;5929;51.906;7.674;2023-03-23T10:13:24;9.40;99.90
11744;DHT22;5929;51.906;7.674;2023-03-23T10:15:55;9.40;99.90
11744;DHT22;5929;51.906;7.674;2023-03-23T10:18:29;9.30;99.90
11744;DHT22;5929;51.906;7.674;2023-03-23T10:20:58;9.40;99.90
11744;DHT22;5929;51.906;7.674;2023-03-23T10:23:46;9.40;99.90
11744;DHT22;5929;51.906;7.674;2023-03-23T10:26:35;9.40;99.90
11744;DHT22;5929;51.906;7.674;2023-03-23T10:29:12;9.40;99.90
11744;DHT22;5929;51.906;7.674;2023-03-23T10:31:45;9.40;99.90
11744;DHT22;5929;51.906;7.674;2023-03-23T10:34:17;9.40;99.90
11744;DHT22;5929;51.906;7.674;2023-03-23T10:36:54;9.60;99.90
11744;DHT22;5929;51.906;7.674;2023-03-23T10:39:29;9.50;99.90
11744;DHT22;5929;51.906;7.674;2023-03-23T10:41:57;9.60;99.90
11744;DHT22;5929;51.906;7.674;2023-03-23T10:44:32;9.60;99.90
11744;DHT22;5929;51.906;7.674;2023-03-23T10:47:04;9.70;99.90
11744;DHT22;5929;51.906;7.674;2023-03-23T10:49:36;9.80;99.90
11744;DHT22;5929;51.906;7.674;2023-03-23T10:52:12;10.00;99.90
11744;DHT22;5929;51.906;7.674;2023-03-23T10:54:51;10.20;99.90
11744;DHT22;5929;51.906;7.674;2023-03-23T10:57:24;10.30;99.90
11744;DHT22;5929;51.906;7.674;2023-03-23T10:59:58;10.30;99.90
11744;DHT22;5929;51.906;7.674;2023-03-23T11:02:25;10.40;99.90
11744;DHT22;5929;51.906;7.674;2023-03-23T11:05:00;10.40;99.90
11744;DHT22;5929;51.906;7.674;2023-03-23T11:07:31;10.20;99.90
11744;DHT22;5929;51.906;7.674;2023-03-23T11:10:21;10.20;99.90
11744;DHT22;5929;51.906;7.674;2023-03-23T11:12:49;10.20;99.90
11744;DHT22;5929;51.906;7.674;2023-03-23T11:15:28;10.20;99.90
11744;DHT22;5929;51.906;7.674;2023-03-23T11:17:57;10.10;99.90
11744;DHT22;5929;51.906;7.674;2023-03-23T11:20:25;10.20;99.90
11744;DHT22;5929;51.906;7.674;2023-03-23T11:22:54;10.20;99.90
11744;DHT22;5929;51.906;7.674;2023-03-23T11:25:22;10.30;99.90
11744;DHT22;5929;51.906;7.674;2023-03-23T11:27:50;10.40;99.90
11744;DHT22;5929;51.906;7.674;2023-03-23T11:30:24;10.60;99.90
11744;DHT22;5929;51.906;7.674;2023-03-23T11:32:51;10.60;99.90
11744;DHT22;5929;51.906;7.674;2023-03-23T11:35:23;10.60;99.90
11744;DHT22;5929;51.906;7.674;2023-03-23T11:37:52;10.50;99.90
11744;DHT22;5929;51.906;7.674;2023-03-23T11:40:23;10.40;99.90
11744;DHT22;5929;51.906;7.674;2023-03-23T11:42:58;10.40;99.90
11744;DHT22;5929;51.906;7.674;2023-03-23T11:45:35;10.50;99.90
11744;DHT22;5929;51.906;7.674;2023-03-23T11:48:11;10.50;99.90
11744;DHT22;5929;51.906;7.674;2023-03-23T11:50:49;10.50;99.90
11744;DHT22;5929;51.906;7.674;2023-03-23T11:53:23;10.50;99.90
11744;DHT22;5929;51.906;7.674;2023-03-23T11:55:59;10.50;99.90
11744;DHT22;5929;51.906;7.674;2023-03-23T11:58:26;10.40;99.90
11744;DHT22;5929;51.906;7.674;2023-03-23T12:01:03;10.50;99.90
11744;DHT22;5929;51.906;7.674;2023-03-23T12:03:56;10.50;99.90
11744;DHT22;5929;51.906;7.674;2023-03-23T12:06:31;10.50;99.90
11744;DHT22;5929;51.906;7.674;2023-03-23T12:09:08;10.60;99.90
11744;DHT22;5929;51.906;7.674;2023-03-23T12:11:50;10.50;99.90
11744;DHT22;5929;51.906;7.674;2023-03-23T12:14:21;10.60;99.90
11744;DHT22;5929;51.906;7.674;2023-03-23T12:17:02;10.80;99.90
11744;DHT22;5929;51.906;7.674;2023-03-23T12:19:38;11.00;99.90
11744;DHT22;5929;51.906;7.674;2023-03-23T12:22:15;11.00;99.90
11744;DHT22;5929;51.906;7.674;2023-03-23T12:24:55;11.10;99.90
11744;DHT22;5929;51.906;7.674;2023-03-23T12:27:34;11.40;99.90
11744;DHT22;5929;51.906;7.674;2023-03-23T12:33:13;11.60;99.90
11744;DHT22;5929;51.906;7.674;2023-03-23T12:35:49;11.70;99.90
11744;DHT22;5929;51.906;7.674;2023-03-23T12:38:41;11.70;99.90
11744;DHT22;5929;51.906;7.674;2023-03-23T12:41:16;11.60;99.90
11744;DHT22;5929;51.906;7.674;2023-03-23T12:43:51;11.70;99.90
11744;DHT22;5929;51.906;7.674;2023-03-23T12:46:45;11.80;99.90
11744;DHT22;5929;51.906;7.674;2023-03-23T12:49:19;12.60;99.90
11744;DHT22;5929;51.906;7.674;2023-03-23T12:51:51;13.40;99.90
11744;DHT22;5929;51.906;7.674;2023-03-23T12:54:27;13.60;99.90
11744;DHT22;5929;51.906;7.674;2023-03-23T12:57:00;13.60;99.90
11744;DHT22;5929;51.906;7.674;2023-03-23T12:59:35;13.60;99.90
11744;DHT22;5929;51.906;7.674;2023-03-23T13:02:15;13.40;99.90
11744;DHT22;5929;51.906;7.674;2023-03-23T13:04:47;13.20;99.90
11744;DHT22;5929;51.906;7.674;2023-03-23T13:07:23;13.10;99.90
11744;DHT22;5929;51.906;7.674;2023-03-23T13:09:55;13.00;99.90
11744;DHT22;5929;51.906;7.674;2023-03-23T13:12:25;12.80;99.90
11744;DHT22;5929;51.906;7.674;2023-03-23T13:15:04;12.80;99.90
11744;DHT22;5929;51.906;7.674;2023-03-23T13:17:42;12.90;99.90
11744;DHT22;5929;51.906;7.674;2023-03-23T13:20:34;12.90;99.90
11744;DHT22;5929;51.906;7.674;2023-03-23T13:23:11;12.80;99.90
11744;DHT22;5929;51.906;7.674;2023-03-23T13:25:48;12.70;99.90
11744;DHT22;5929;51.906;7.674;2023-03-23T13:28:16;12.70;99.90
11744;DHT22;5929;51.906;7.674;2023-03-23T13:30:58;12.90;99.90
11744;DHT22;5929;51.906;7.674;2023-03-23T13:33:29;13.30;99.90
11744;DHT22;5929;51.906;7.674;2023-03-23T13:35:56;13.90;99.90
11744;DHT22;5929;51.906;7.674;2023-03-23T13:38:30;14.50;99.90
11744;DHT22;5929;51.906;7.674;2023-03-23T13:40:58;14.60;99.90
11744;DHT22;5929;51.906;7.674;2023-03-23T13:43:34;15.40;99.90
11744;DHT22;5929;51.906;7.674;2023-03-23T13:46:13;15.90;99.90
11744;DHT22;5929;51.906;7.674;2023-03-23T13:48:43;15.60;99.90
11744;DHT22;5929;51.906;7.674;2023-03-23T13:51:32;15.50;99.90
11744;DHT22;5929;51.906;7.674;2023-03-23T13:54:13;15.50;99.90
11744;DHT22;5929;51.906;7.674;2023-03-23T13:56:41;15.90;99.90
11744;DHT22;5929;51.906;7.674;2023-03-23T13:59:15;16.40;99.90
11744;DHT22;5929;51.906;7.674;2023-03-23T14:01:43;16.20;99.90
11744;DHT22;5929;51.906;7.674;2023-03-23T14:04:13;15.80;99.90
11744;DHT22;5929;51.906;7.674;2023-03-23T14:06:41;15.40;99.90
11744;DHT22;5929;51.906;7.674;2023-03-23T14:09:12;15.20;99.90
11744;DHT22;5929;51.906;7.674;2023-03-23T14:11:49;15.40;99.90
11744;DHT22;5929;51.906;7.674;2023-03-23T14:14:22;15.20;99.90
11744;DHT22;5929;51.906;7.674;2023-03-23T14:16:52;15.20;99.90
11744;DHT22;5929;51.906;7.674;2023-03-23T14:19:22;15.40;99.90
11744;DHT22;5929;51.906;7.674;2023-03-23T14:21:53;15.40;99.90
11744;DHT22;5929;51.906;7.674;2023-03-23T14:24:25;15.40;99.90
11744;DHT22;5929;51.906;7.674;2023-03-23T14:27:02;15.60;99.90
11744;DHT22;5929;51.906;7.674;2023-03-23T14:29:29;15.40;99.90
11744;DHT22;5929;51.906;7.674;2023-03-23T14:31:58;15.30;99.90
11744;DHT22;5929;51.906;7.674;2023-03-23T14:34:28;15.20;99.90
11744;DHT22;5929;51.906;7.674;2023-03-23T14:36:57;15.30;99.90
11744;DHT22;5929;51.906;7.674;2023-03-23T14:39:26;15.20;99.90
11744;DHT22;5929;51.906;7.674;2023-03-23T14:41:55;15.40;99.90
11744;DHT22;5929;51.906;7.674;2023-03-23T14:44:26;15.70;99.90
11744;DHT22;5929;51.906;7.674;2023-03-23T14:46:55;15.60;99.90
11744;DHT22;5929;51.906;7.674;2023-03-23T14:49:30;15.90;99.90
11744;DHT22;5929;51.906;7.674;2023-03-23T14:52:03;16.10;99.90
11744;DHT22;5929;51.906;7.674;2023-03-23T14:54:31;16.30;99.90
11744;DHT22;5929;51.906;7.674;2023-03-23T14:57:03;16.10;99.90
11744;DHT22;5929;51.906;7.674;2023-03-23T14:59:35;16.40;99.90
11744;DHT22;5929;51.906;7.674;2023-03-23T15:02:03;16.70;99.90
11744;DHT22;5929;51.906;7.674;2023-03-23T15:04:31;16.90;99.90
11744;DHT22;5929;51.906;7.674;2023-03-23T15:07:01;16.60;99.90
11744;DHT22;5929;51.906;7.674;2023-03-23T15:09:28;16.40;99.90
11744;DHT22;5929;51.906;7.674;2023-03-23T15:11:58;16.40;99.90
11744;DHT22;5929;51.906;7.674;2023-03-23T15:14:28;16.10;99.90
11744;DHT22;5929;51.906;7.674;2023-03-23T15:16:56;15.90;99.90
11744;DHT22;5929;51.906;7.674;2023-03-23T15:19:26;15.80;99.90
11744;DHT22;5929;51.906;7.674;2023-03-23T15:21:56;15.60;99.90
11744;DHT22;5929;51.906;7.674;2023-03-23T15:24:32;16.10;99.90
11744;DHT22;5929;51.906;7.674;2023-03-23T15:27:13;16.50;99.90
11744;DHT22;5929;51.906;7.674;2023-03-23T15:29:48;16.80;99.90
11744;DHT22;5929;51.906;7.674;2023-03-23T15:32:22;16.90;99.90
11744;DHT22;5929;51.906;7.674;2023-03-23T15:34:49;16.90;99.90
11744;DHT22;5929;51.906;7.674;2023-03-23T15:37:21;16.20;99.90
11744;DHT22;5929;51.906;7.674;2023-03-23T15:39:49;15.60;99.90
11744;DHT22;5929;51.906;7.674;2023-03-23T15:42:25;15.20;99.90
11744;DHT22;5929;51.906;7.674;2023-03-23T15:45:16;15.00;99.90
11744;DHT22;5929;51.906;7.674;2023-03-23T15:47:47;14.90;99.90
11744;DHT22;5929;51.906;7.674;2023-03-23T15:50:16;15.10;99.90
11744;DHT22;5929;51.906;7.674;2023-03-23T15:52:46;15.50;99.90
11744;DHT22;5929;51.906;7.674;2023-03-23T15:55:21;15.80;99.90
11744;DHT22;5929;51.906;7.674;2023-03-23T15:57:49;15.80;99.90
11744;DHT22;5929;51.906;7.674;2023-03-23T16:00:20;15.40;99.90
11744;DHT22;5929;51.906;7.674;2023-03-23T16:02:51;15.10;99.90
11744;DHT22;5929;51.906;7.674;2023-03-23T16:05:19;14.90;99.90
11744;DHT22;5929;51.906;7.674;2023-03-23T16:07:47;14.70;99.90
11744;DHT22;5929;51.906;7.674;2023-03-23T16:10:16;14.70;99.90
11744;DHT22;5929;51.906;7.674;2023-03-23T16:12:46;14.60;99.90
11744;DHT22;5929;51.906;7.674;2023-03-23T16:15:13;14.60;99.90
11744;DHT22;5929;51.906;7.674;2023-03-23T16:17:41;14.50;99.90
11744;DHT22;5929;51.906;7.674;2023-03-23T16:20:13;14.40;99.90